Pilote(s) en ligne...
 K-NAVO (Patrick)  
 F-JUJU (Julien)  
 F-PIER (pierrot)  

Compagnie Fsx-France ! Un nouveau look pour votre VA, par : Julien & Co

 METAR ET TAF INFORMATION
METAR FOR LFMT
ADDS - METARS form results

(2222 UTC 29 October 2020)
Data provider http://aviationweather.gov/metar/data/
 
METAR text: LFMT 292200Z AUTO 36007KT CAVOK 12/09 Q1025 NOSIG
Conditions at: LFMT (FREJORGUES/MONTP, FR) observed 2200 UTC 29 October 2020
Temperature: 12.0°C (54°F)
Dewpoint: 9.0°C (48°F) [RH = 82%]
Pressure (altimeter): 30.27 inches Hg (1025.0 mb)
Winds: from the N (360 degrees) at 8 MPH (7 knots; 3.6 m/s)
Visibility: 6 or more miles (10+ km)
Ceiling: ceiling and visibility are OK
Clouds: unknown
Weather: no significant weather observed at this time

METAR text: LFMT 292130Z AUTO 34004KT CAVOK 13/09 Q1025 NOSIG
Conditions at: LFMT (FREJORGUES/MONTP, FR) observed 2130 UTC 29 October 2020
Temperature: 13.0°C (55°F)
Dewpoint: 9.0°C (48°F) [RH = 77%]
Pressure (altimeter): 30.27 inches Hg (1025.0 mb)
Winds: from the NNW (340 degrees) at 5 MPH (4 knots; 2.1 m/s)
Visibility: 6 or more miles (10+ km)
Ceiling: ceiling and visibility are OK
Clouds: unknown
Weather: no significant weather observed at this time

Forecast for: LFMT (FREJORGUES/MONTP, FR)
Text: TAF LFMT 292000Z 2921/3021 VRB05KT CAVOK
Forecast period: 2100 UTC 29 October 2020 to 2100 UTC 30 October 2020
Forecast type: FROM: standard forecast or significant change
Winds: variable direction winds at 6 MPH (5 knots; 2.6 m/s)
Visibility: 6 or more miles (10+ km)
Ceiling: unknown
Clouds: missing
Weather: NSW  (no significant weather)

 AÉROPORT DE AÉROPORT

 INFORMATIONS DE PISTE
Piste 12L Longueur de la piste 2600 m = 8530 ft Largeur de la piste 50 m = 164 ft
Élévation de la piste 17 ft Seuil de la piste déplacés 0 ft Runway heading 124
Piste 30R Longueur de la piste 2600 m = 8530 ft Largeur de la piste 50 m = 164 ft
Élévation de la piste 6 ft Seuil de la piste déplacés 0 ft Runway heading 304
Piste 12R Longueur de la piste 1100 m = 3609 ft Largeur de la piste 30 m = 98 ft
Élévation de la piste 10 ft Seuil de la piste déplacés 328 ft Runway heading 124
Piste 30L Longueur de la piste 1100 m = 3609 ft Largeur de la piste 30 m = 98 ft
Élévation de la piste 7 ft Seuil de la piste déplacés 0 ft Runway heading 304
 AÉROPORT FRÉQUENCES
Type APP Nom MONTPELLIE Féquence 120.375 MHZ
Type ATIS Nom MONTPELLIE Féquence 124.125 MHZ
Type GND Nom MONTPELLIE Féquence 121.95 MHZ
Type TWR Nom MONTPELLIE Féquence 118.2 MHZ
Type TWR Nom MONTPELLIE Féquence 118.775 MHZ

 AIDES A LA NAVIGATION
Type VOR-DME Nom Mediterranee Féquence 114450 KHZ